createdAt,value
2019-06-08T00:00:59.973Z,13.80
2019-06-08T00:03:28.542Z,13.80
2019-06-08T00:05:57.095Z,13.80
2019-06-08T00:08:25.643Z,13.80
2019-06-08T00:10:54.205Z,13.80
2019-06-08T00:13:23.242Z,13.70
2019-06-08T00:15:52.010Z,13.70
2019-06-08T00:18:21.529Z,13.80
2019-06-08T00:20:50.356Z,13.70
2019-06-08T00:23:19.983Z,13.70
2019-06-08T00:25:48.668Z,13.60
2019-06-08T00:28:18.731Z,13.60
2019-06-08T00:30:47.480Z,13.60
2019-06-08T00:33:17.075Z,13.60
2019-06-08T00:35:45.727Z,13.60
2019-06-08T00:38:14.857Z,13.50
2019-06-08T00:40:44.485Z,13.40
2019-06-08T00:43:12.965Z,13.40
2019-06-08T00:45:41.542Z,13.40
2019-06-08T00:48:10.157Z,13.30
2019-06-08T00:50:38.659Z,13.40
2019-06-08T00:53:07.202Z,13.30
2019-06-08T00:55:35.774Z,13.30
2019-06-08T00:58:04.445Z,13.30
2019-06-08T01:00:33.016Z,13.40
2019-06-08T01:03:21.670Z,13.40
2019-06-08T01:05:50.374Z,13.40
2019-06-08T01:08:20.608Z,13.30
2019-06-08T01:10:49.393Z,13.40
2019-06-08T01:13:18.846Z,13.40
2019-06-08T01:15:47.536Z,13.40
2019-06-08T01:18:16.005Z,13.30
2019-06-08T01:20:44.565Z,13.30
2019-06-08T01:23:13.038Z,13.30
2019-06-08T01:25:41.679Z,13.20
2019-06-08T01:28:10.248Z,13.20
2019-06-08T01:30:38.817Z,13.20
2019-06-08T01:33:07.282Z,13.20
2019-06-08T01:35:35.847Z,13.10
2019-06-08T01:38:04.735Z,13.20
2019-06-08T01:40:39.017Z,13.20
2019-06-08T01:43:07.573Z,13.20
2019-06-08T01:45:36.111Z,13.20
2019-06-08T01:48:19.580Z,13.20
2019-06-08T01:50:36.610Z,13.20
2019-06-08T01:53:05.244Z,13.20
2019-06-08T01:55:33.705Z,13.20
2019-06-08T01:58:02.207Z,13.20
2019-06-08T02:00:38.741Z,13.10
2019-06-08T02:03:01.121Z,13.00
2019-06-08T02:05:30.305Z,12.90
2019-06-08T02:07:59.590Z,12.90
2019-06-08T02:10:28.982Z,12.90
2019-06-08T02:12:57.655Z,12.90
2019-06-08T02:15:27.173Z,12.90
2019-06-08T02:17:55.963Z,12.90
2019-06-08T02:20:24.740Z,12.90
2019-06-08T02:22:53.321Z,12.90
2019-06-08T02:25:24.925Z,12.80
2019-06-08T02:27:53.417Z,12.70
2019-06-08T02:30:22.832Z,12.60
2019-06-08T02:32:51.360Z,12.60
2019-06-08T02:35:20.042Z,12.50
2019-06-08T02:37:48.612Z,12.40
2019-06-08T02:40:17.486Z,12.40
2019-06-08T02:42:46.068Z,12.30
2019-06-08T02:45:16.347Z,12.30
2019-06-08T02:47:44.909Z,12.30
2019-06-08T02:50:14.488Z,12.20
2019-06-08T02:52:44.799Z,12.20
2019-06-08T02:55:13.804Z,12.20
2019-06-08T02:57:44.231Z,12.10
2019-06-08T03:00:14.117Z,12.00
2019-06-08T03:02:44.151Z,12.00
2019-06-08T03:05:13.025Z,11.90
2019-06-08T03:07:43.329Z,11.90
2019-06-08T03:10:12.513Z,12.00
2019-06-08T03:12:42.745Z,12.00
2019-06-08T03:15:13.156Z,12.00
2019-06-08T03:17:42.074Z,12.10
2019-06-08T03:20:10.808Z,12.10
2019-06-08T03:22:41.931Z,12.10
2019-06-08T03:25:09.568Z,12.10
2019-06-08T03:27:38.932Z,12.20
2019-06-08T03:30:17.400Z,12.10
2019-06-08T03:32:47.125Z,12.10
2019-06-08T03:35:09.441Z,12.00
2019-06-08T03:37:38.595Z,12.00
2019-06-08T03:40:08.328Z,12.00
2019-06-08T03:42:36.865Z,11.90
2019-06-08T03:45:08.773Z,11.90
2019-06-08T03:47:38.989Z,11.80
2019-06-08T03:50:08.866Z,11.80
2019-06-08T03:52:38.220Z,11.70
2019-06-08T03:55:07.701Z,11.70
2019-06-08T03:57:38.056Z,11.60
2019-06-08T04:00:13.257Z,11.60
2019-06-08T04:02:42.162Z,11.70
2019-06-08T04:05:10.695Z,11.80
2019-06-08T04:07:39.817Z,11.90
2019-06-08T04:10:08.853Z,11.90
2019-06-08T04:12:37.771Z,12.00
2019-06-08T04:15:08.005Z,11.90
2019-06-08T04:17:37.909Z,12.00
2019-06-08T04:20:11.689Z,12.00
2019-06-08T04:22:40.431Z,12.00
2019-06-08T04:25:10.716Z,12.00
2019-06-08T04:27:40.454Z,12.00
2019-06-08T04:30:09.764Z,12.00
2019-06-08T04:32:38.611Z,12.00
2019-06-08T04:35:08.761Z,12.20
2019-06-08T04:37:38.247Z,12.30
2019-06-08T04:40:09.052Z,12.30
2019-06-08T04:42:39.193Z,12.30
2019-06-08T04:45:10.744Z,12.30
2019-06-08T04:47:40.995Z,12.30
2019-06-08T04:50:21.457Z,12.30
2019-06-08T04:52:40.895Z,12.30
2019-06-08T04:55:09.710Z,12.20
2019-06-08T04:57:39.327Z,12.20
2019-06-08T05:00:12.680Z,12.20
2019-06-08T05:02:42.257Z,12.30
2019-06-08T05:05:10.359Z,12.40
2019-06-08T05:07:39.332Z,12.40
2019-06-08T05:10:09.284Z,12.40
2019-06-08T05:12:39.233Z,12.40
2019-06-08T05:15:10.163Z,12.50
2019-06-08T05:17:39.280Z,12.60
2019-06-08T05:20:09.096Z,12.60
2019-06-08T05:22:37.561Z,12.60
2019-06-08T05:25:06.245Z,12.60
2019-06-08T05:27:34.809Z,12.50
2019-06-08T05:30:08.453Z,12.60
2019-06-08T05:32:33.737Z,12.50
2019-06-08T05:35:02.283Z,12.50
2019-06-08T05:37:30.776Z,12.40
2019-06-08T05:39:59.320Z,12.30
2019-06-08T05:42:27.806Z,12.30
2019-06-08T05:44:56.353Z,12.40
2019-06-08T05:47:24.916Z,12.40
2019-06-08T05:50:05.611Z,12.50
2019-06-08T05:52:34.170Z,12.50
2019-06-08T05:55:02.781Z,12.50
2019-06-08T05:57:31.272Z,12.50
2019-06-08T05:59:59.741Z,12.60
2019-06-08T06:02:28.370Z,12.70
2019-06-08T06:04:56.928Z,12.80
2019-06-08T06:07:25.540Z,12.80
2019-06-08T06:09:57.023Z,12.80
2019-06-08T06:12:26.159Z,12.80
2019-06-08T06:14:54.681Z,12.80
2019-06-08T06:17:23.248Z,12.70
2019-06-08T06:19:51.789Z,12.70
2019-06-08T06:22:20.415Z,12.80
2019-06-08T06:24:49.729Z,12.90
2019-06-08T06:27:18.394Z,12.90
2019-06-08T06:29:47.926Z,12.90
2019-06-08T06:32:16.578Z,12.70
2019-06-08T06:34:45.831Z,12.80
2019-06-08T06:37:14.560Z,12.80
2019-06-08T06:39:43.948Z,13.10
2019-06-08T06:42:12.633Z,13.10
2019-06-08T06:44:42.163Z,13.10
2019-06-08T06:47:11.008Z,13.00
2019-06-08T06:49:39.549Z,13.00
2019-06-08T06:52:08.037Z,13.20
2019-06-08T06:54:36.627Z,13.20
2019-06-08T06:57:05.222Z,13.30
2019-06-08T06:59:33.751Z,13.20
2019-06-08T07:02:02.248Z,13.60
2019-06-08T07:04:50.340Z,13.60
2019-06-08T07:07:19.025Z,13.60
2019-06-08T07:09:48.406Z,13.60
2019-06-08T07:12:17.032Z,13.70
2019-06-08T07:14:46.927Z,13.90
2019-06-08T07:17:15.576Z,14.00
2019-06-08T07:19:44.120Z,14.00
2019-06-08T07:22:12.608Z,14.20
2019-06-08T07:24:41.186Z,14.30
2019-06-08T07:27:09.796Z,14.10
2019-06-08T07:29:38.401Z,14.20
2019-06-08T07:32:07.140Z,14.30
2019-06-08T07:34:35.604Z,14.40
2019-06-08T07:37:04.145Z,14.30
2019-06-08T07:39:32.708Z,14.10
2019-06-08T07:42:01.173Z,14.10
2019-06-08T07:44:35.433Z,14.20
2019-06-08T07:47:04.046Z,14.10
2019-06-08T07:49:32.593Z,14.10
2019-06-08T07:52:09.851Z,14.40
2019-06-08T07:54:31.290Z,14.50
2019-06-08T07:56:59.827Z,14.30
2019-06-08T07:59:28.378Z,14.20
2019-06-08T08:01:58.231Z,14.10
2019-06-08T08:04:26.923Z,14.10
2019-06-08T08:06:56.769Z,14.20
2019-06-08T08:09:25.443Z,14.20
2019-06-08T08:11:55.203Z,14.30
2019-06-08T08:14:23.840Z,14.60
2019-06-08T08:16:52.862Z,14.60
2019-06-08T08:19:21.484Z,14.60
2019-06-08T08:21:51.898Z,14.50
2019-06-08T08:24:20.169Z,14.60
2019-06-08T08:26:50.874Z,14.70
2019-06-08T08:29:18.840Z,14.70
2019-06-08T08:31:47.979Z,14.60
2019-06-08T08:34:18.276Z,14.80
2019-06-08T08:36:48.165Z,15.00
2019-06-08T08:39:17.735Z,14.90
2019-06-08T08:41:49.962Z,14.70
2019-06-08T08:44:17.605Z,15.10
2019-06-08T08:46:48.651Z,15.30
2019-06-08T08:49:18.257Z,15.40
2019-06-08T08:51:47.689Z,15.90
2019-06-08T08:54:18.333Z,16.00
2019-06-08T08:56:50.457Z,15.70
2019-06-08T08:59:18.061Z,15.70
2019-06-08T09:01:48.293Z,15.30
2019-06-08T09:04:18.519Z,15.30
2019-06-08T09:06:48.300Z,15.50
2019-06-08T09:09:18.847Z,15.40
2019-06-08T09:11:48.476Z,15.40
2019-06-08T09:14:18.343Z,15.40
2019-06-08T09:16:48.207Z,15.50
2019-06-08T09:19:18.374Z,15.80
2019-06-08T09:21:48.185Z,15.80
2019-06-08T09:24:18.679Z,15.70
2019-06-08T09:26:47.721Z,15.70
2019-06-08T09:29:18.912Z,15.90
2019-06-08T09:31:49.020Z,15.90
2019-06-08T09:34:19.459Z,15.70
2019-06-08T09:36:48.160Z,15.90
2019-06-08T09:39:18.632Z,16.00
2019-06-08T09:41:47.927Z,15.90
2019-06-08T09:44:18.469Z,16.00
2019-06-08T09:46:48.114Z,15.90
2019-06-08T09:49:18.800Z,15.60
2019-06-08T09:51:48.627Z,15.60
2019-06-08T09:54:18.236Z,15.50
2019-06-08T09:56:47.815Z,15.60
2019-06-08T09:59:18.728Z,15.70
2019-06-08T10:01:46.852Z,15.30
2019-06-08T10:04:15.416Z,15.30
2019-06-08T10:06:43.973Z,15.50
2019-06-08T10:09:12.567Z,15.90
2019-06-08T10:11:41.148Z,16.30
2019-06-08T10:14:12.443Z,16.60
2019-06-08T10:16:39.948Z,16.40
2019-06-08T10:19:10.292Z,16.30
2019-06-08T10:21:42.748Z,15.90
2019-06-08T10:24:09.584Z,16.70
2019-06-08T10:26:38.460Z,16.90
2019-06-08T10:29:09.781Z,16.80
2019-06-08T10:31:43.046Z,17.90
2019-06-08T10:34:11.007Z,18.20
2019-06-08T10:36:38.330Z,17.90
2019-06-08T10:39:11.267Z,17.60
2019-06-08T10:41:38.832Z,17.40
2019-06-08T10:44:08.567Z,17.60
2019-06-08T10:46:40.260Z,17.60
2019-06-08T10:49:09.592Z,17.40
2019-06-08T10:51:40.650Z,17.30
2019-06-08T10:54:09.444Z,16.90
2019-06-08T10:56:39.099Z,16.60
2019-06-08T10:59:10.563Z,16.80
2019-06-08T11:01:38.631Z,17.30
2019-06-08T11:04:07.609Z,17.40
2019-06-08T11:06:40.006Z,16.90
2019-06-08T11:09:12.602Z,16.50
2019-06-08T11:11:38.384Z,16.50
2019-06-08T11:14:12.087Z,16.30
2019-06-08T11:16:38.528Z,16.30
2019-06-08T11:19:11.385Z,16.60
2019-06-08T11:21:38.591Z,16.80
2019-06-08T11:24:22.833Z,16.80
2019-06-08T11:26:40.015Z,17.20
2019-06-08T11:29:11.871Z,17.40
2019-06-08T11:31:39.485Z,18.00
2019-06-08T11:34:08.683Z,18.10
2019-06-08T11:36:39.410Z,18.50
2019-06-08T11:39:10.940Z,19.10
2019-06-08T11:41:38.542Z,19.80
2019-06-08T11:44:11.597Z,18.80
2019-06-08T11:46:38.464Z,18.50
2019-06-08T11:49:11.682Z,18.20
2019-06-08T11:51:38.041Z,18.30
2019-06-08T11:54:25.591Z,17.80
2019-06-08T11:56:39.966Z,17.50
2019-06-08T11:59:14.408Z,17.50
2019-06-08T12:01:43.228Z,17.60
2019-06-08T12:04:11.995Z,17.70
2019-06-08T12:06:40.608Z,18.00
2019-06-08T12:09:11.070Z,18.20
2019-06-08T12:11:39.466Z,18.30
2019-06-08T12:14:09.735Z,18.20
2019-06-08T12:16:38.225Z,18.20
2019-06-08T12:19:12.008Z,18.70
2019-06-08T12:21:37.329Z,19.20
2019-06-08T12:24:06.251Z,19.20
2019-06-08T12:26:34.935Z,19.30
2019-06-08T12:29:04.902Z,19.50
2019-06-08T12:31:33.656Z,19.60
2019-06-08T12:34:02.213Z,19.50
2019-06-08T12:36:31.179Z,20.00
2019-06-08T12:38:59.712Z,20.00
2019-06-08T12:41:28.914Z,19.40
2019-06-08T12:43:58.453Z,18.30
2019-06-08T12:46:27.947Z,18.20
2019-06-08T12:48:58.314Z,18.20
2019-06-08T12:51:28.100Z,18.90
2019-06-08T12:54:00.005Z,19.20
2019-06-08T12:56:28.762Z,18.90
2019-06-08T12:58:57.962Z,18.90
2019-06-08T13:01:28.220Z,18.40
2019-06-08T13:03:58.190Z,18.20
2019-06-08T13:06:28.292Z,18.30
2019-06-08T13:08:57.865Z,18.60
2019-06-08T13:11:28.319Z,18.30
2019-06-08T13:13:56.789Z,18.00
2019-06-08T13:16:25.336Z,18.30
2019-06-08T13:18:53.832Z,19.10
2019-06-08T13:21:34.138Z,19.10
2019-06-08T13:23:52.528Z,19.50
2019-06-08T13:26:27.456Z,19.30
2019-06-08T13:28:51.220Z,19.30
2019-06-08T13:31:24.187Z,18.70
2019-06-08T13:33:49.913Z,18.70
2019-06-08T13:36:22.045Z,18.50
2019-06-08T13:38:48.680Z,19.30
2019-06-08T13:41:22.333Z,20.30
2019-06-08T13:43:47.890Z,21.30
2019-06-08T13:46:18.611Z,20.90
2019-06-08T13:48:48.208Z,19.90
2019-06-08T13:51:19.821Z,19.30
2019-06-08T13:53:47.895Z,19.10
2019-06-08T13:56:18.971Z,18.90
2019-06-08T13:58:48.465Z,18.90
2019-06-08T14:01:17.647Z,18.80
2019-06-08T14:03:49.796Z,18.50
2019-06-08T14:06:19.036Z,20.30
2019-06-08T14:08:47.886Z,22.50
2019-06-08T14:11:19.669Z,23.20
2019-06-08T14:13:48.070Z,21.50
2019-06-08T14:16:20.181Z,20.60
2019-06-08T14:18:48.576Z,20.00
2019-06-08T14:21:28.018Z,22.00
2019-06-08T14:23:48.413Z,23.70
2019-06-08T14:26:19.314Z,22.70
2019-06-08T14:28:50.302Z,22.70
2019-06-08T14:31:19.709Z,23.00
2019-06-08T14:33:48.426Z,22.00
2019-06-08T14:36:20.793Z,20.60
2019-06-08T14:38:49.474Z,20.90
2019-06-08T14:41:18.211Z,21.30
2019-06-08T14:43:48.273Z,20.40
2019-06-08T14:46:19.354Z,20.70
2019-06-08T14:48:48.093Z,23.60
2019-06-08T14:51:16.641Z,24.50
2019-06-08T14:53:45.193Z,25.00
2019-06-08T14:56:13.688Z,22.20
2019-06-08T14:58:42.156Z,21.20
2019-06-08T15:01:10.723Z,20.50
2019-06-08T15:03:39.189Z,21.50
2019-06-08T15:06:08.231Z,23.60
2019-06-08T15:08:36.860Z,22.30
2019-06-08T15:11:07.917Z,20.80
2019-06-08T15:13:37.603Z,22.30
2019-06-08T15:16:14.632Z,20.80
2019-06-08T15:18:43.099Z,20.50
2019-06-08T15:21:11.592Z,21.70
2019-06-08T15:23:40.060Z,23.00
2019-06-08T15:26:23.217Z,24.20
2019-06-08T15:28:48.630Z,23.90
2019-06-08T15:31:18.356Z,24.40
2019-06-08T15:33:48.186Z,24.00
2019-06-08T15:36:20.198Z,24.10
2019-06-08T15:38:47.988Z,21.80
2019-06-08T15:41:18.132Z,22.40
2019-06-08T15:43:48.080Z,21.80
2019-06-08T15:46:18.367Z,20.20
2019-06-08T15:48:48.574Z,19.80
2019-06-08T15:51:17.200Z,19.40
2019-06-08T15:53:47.771Z,19.10
2019-06-08T15:56:15.963Z,19.20
2019-06-08T15:58:44.506Z,19.30
2019-06-08T16:01:14.811Z,19.10
2019-06-08T16:03:43.374Z,19.10
2019-06-08T16:06:11.932Z,18.70
2019-06-08T16:08:40.468Z,18.70
2019-06-08T16:11:09.018Z,18.90
2019-06-08T16:13:37.585Z,18.70
2019-06-08T16:16:06.044Z,18.80
2019-06-08T16:18:35.802Z,19.20
2019-06-08T16:21:04.485Z,19.60
2019-06-08T16:23:33.697Z,19.60
2019-06-08T16:26:02.321Z,19.30
2019-06-08T16:28:31.987Z,19.20
2019-06-08T16:31:00.935Z,19.00
2019-06-08T16:33:29.626Z,18.90
2019-06-08T16:35:58.157Z,18.60
2019-06-08T16:38:27.841Z,18.40
2019-06-08T16:40:56.401Z,18.40
2019-06-08T16:43:24.969Z,18.40
2019-06-08T16:45:53.436Z,18.30
2019-06-08T16:48:21.937Z,18.20
2019-06-08T16:50:50.403Z,18.20
2019-06-08T16:53:18.963Z,18.10
2019-06-08T16:55:47.500Z,18.10
2019-06-08T16:58:16.009Z,18.10
2019-06-08T17:00:44.554Z,18.00
2019-06-08T17:03:13.147Z,18.10
2019-06-08T17:05:42.005Z,18.00
2019-06-08T17:08:10.544Z,17.90
2019-06-08T17:10:39.009Z,17.80
2019-06-08T17:13:11.064Z,17.80
2019-06-08T17:15:38.404Z,17.90
2019-06-08T17:18:07.120Z,17.90
2019-06-08T17:20:36.316Z,18.00
2019-06-08T17:23:04.954Z,17.90
2019-06-08T17:25:34.441Z,17.80
2019-06-08T17:28:03.945Z,17.80
2019-06-08T17:30:33.885Z,17.70
2019-06-08T17:33:02.704Z,17.60
2019-06-08T17:35:31.542Z,17.50
2019-06-08T17:38:00.076Z,17.50
2019-06-08T17:40:28.576Z,17.50
2019-06-08T17:42:57.043Z,17.50
2019-06-08T17:45:25.533Z,17.40
2019-06-08T17:47:53.999Z,17.40
2019-06-08T17:50:23.696Z,17.40
2019-06-08T17:52:52.160Z,17.40
2019-06-08T17:55:20.724Z,17.30
2019-06-08T17:57:53.417Z,17.30
2019-06-08T18:00:19.794Z,17.20
2019-06-08T18:02:48.490Z,17.20
2019-06-08T18:05:18.210Z,17.20
2019-06-08T18:07:48.989Z,17.20
2019-06-08T18:10:17.944Z,17.10
2019-06-08T18:12:48.995Z,17.10
2019-06-08T18:15:17.428Z,17.10
2019-06-08T18:17:48.095Z,17.10
2019-06-08T18:20:18.155Z,17.00
2019-06-08T18:22:49.261Z,17.00
2019-06-08T18:25:17.540Z,16.90
2019-06-08T18:28:02.617Z,16.80
2019-06-08T18:30:18.981Z,16.80
2019-06-08T18:32:48.562Z,16.80
2019-06-08T18:35:18.248Z,16.70
2019-06-08T18:37:48.648Z,16.70
2019-06-08T18:40:18.093Z,16.70
2019-06-08T18:42:48.693Z,16.60
2019-06-08T18:45:18.641Z,16.60
2019-06-08T18:47:48.495Z,16.60
2019-06-08T18:50:17.499Z,16.60
2019-06-08T18:52:47.324Z,16.50
2019-06-08T18:55:18.324Z,16.40
2019-06-08T18:57:49.078Z,16.40
2019-06-08T19:00:18.560Z,16.40
2019-06-08T19:02:53.609Z,16.30
2019-06-08T19:05:20.801Z,16.20
2019-06-08T19:07:50.035Z,16.10
2019-06-08T19:10:32.652Z,16.00
2019-06-08T19:13:01.252Z,15.90
2019-06-08T19:15:38.788Z,15.80
2019-06-08T19:18:08.182Z,15.80
2019-06-08T19:20:40.614Z,15.70
2019-06-08T19:23:09.061Z,15.70
2019-06-08T19:25:42.172Z,15.50
2019-06-08T19:28:07.786Z,15.30
2019-06-08T19:30:39.438Z,15.20
2019-06-08T19:33:07.338Z,15.00
2019-06-08T19:35:36.029Z,14.80
2019-06-08T19:38:04.561Z,14.60
2019-06-08T19:40:33.044Z,14.40
2019-06-08T19:43:01.698Z,14.30
2019-06-08T19:45:30.377Z,14.20
2019-06-08T19:47:58.840Z,14.20
2019-06-08T19:50:28.626Z,14.10
2019-06-08T19:52:57.994Z,14.00
2019-06-08T19:55:26.808Z,13.90
2019-06-08T19:57:57.615Z,13.80
2019-06-08T20:00:27.922Z,13.70
2019-06-08T20:02:58.080Z,13.50
2019-06-08T20:05:28.139Z,13.40
2019-06-08T20:07:57.428Z,13.30
2019-06-08T20:10:28.038Z,13.30
2019-06-08T20:12:57.639Z,13.20
2019-06-08T20:15:26.516Z,13.10
2019-06-08T20:17:57.263Z,13.10
2019-06-08T20:20:27.730Z,12.90
2019-06-08T20:22:55.481Z,12.90
2019-06-08T20:25:24.094Z,12.80
2019-06-08T20:27:53.643Z,12.70
2019-06-08T20:30:22.291Z,12.70
2019-06-08T20:32:52.434Z,12.60
2019-06-08T20:35:22.612Z,12.50
2019-06-08T20:37:53.912Z,12.50
2019-06-08T20:40:22.564Z,12.40
2019-06-08T20:42:53.278Z,12.30
2019-06-08T20:45:21.235Z,12.30
2019-06-08T20:47:52.010Z,12.20
2019-06-08T20:50:21.107Z,12.20
2019-06-08T20:52:51.209Z,12.10
2019-06-08T20:55:19.889Z,12.00
2019-06-08T20:57:49.781Z,11.90
2019-06-08T21:00:18.977Z,11.90
2019-06-08T21:02:50.030Z,11.80
2019-06-08T21:05:18.285Z,11.80
2019-06-08T21:07:49.483Z,11.80
2019-06-08T21:10:18.649Z,11.70
2019-06-08T21:12:49.922Z,11.70
2019-06-08T21:15:17.834Z,11.70
2019-06-08T21:17:49.130Z,11.60
2019-06-08T21:20:17.729Z,11.50
2019-06-08T21:22:50.024Z,11.50
2019-06-08T21:25:17.578Z,11.30
2019-06-08T21:27:48.498Z,11.30
2019-06-08T21:30:23.928Z,11.30
2019-06-08T21:32:50.329Z,11.30
2019-06-08T21:35:18.360Z,11.20
2019-06-08T21:37:50.690Z,11.20
2019-06-08T21:40:17.720Z,11.10
2019-06-08T21:42:48.850Z,11.00
2019-06-08T21:45:18.995Z,11.00
2019-06-08T21:47:48.622Z,11.10
2019-06-08T21:50:18.602Z,11.00
2019-06-08T21:52:50.197Z,10.90
2019-06-08T21:55:17.897Z,10.90
2019-06-08T21:57:49.515Z,10.90
2019-06-08T22:00:35.825Z,10.90
2019-06-08T22:02:48.038Z,10.80
2019-06-08T22:05:16.776Z,10.80
2019-06-08T22:07:47.161Z,10.70
2019-06-08T22:10:17.803Z,10.70
2019-06-08T22:12:48.214Z,10.60
2019-06-08T22:15:18.222Z,10.60
2019-06-08T22:17:47.654Z,10.60
2019-06-08T22:20:18.478Z,10.60
2019-06-08T22:22:47.309Z,10.50
2019-06-08T22:25:17.571Z,10.50
2019-06-08T22:27:46.679Z,10.50
2019-06-08T22:30:32.378Z,10.40
2019-06-08T22:32:47.457Z,10.40
2019-06-08T22:35:15.768Z,10.40
2019-06-08T22:37:44.304Z,10.40
2019-06-08T22:40:13.332Z,10.40
2019-06-08T22:42:41.867Z,10.40
2019-06-08T22:45:11.377Z,10.30
2019-06-08T22:47:39.904Z,10.30
2019-06-08T22:50:09.636Z,10.20
2019-06-08T22:52:38.096Z,10.10
2019-06-08T22:55:10.508Z,10.20
2019-06-08T22:57:37.657Z,10.10
2019-06-08T23:00:14.528Z,10.00
2019-06-08T23:02:38.529Z,9.90
2019-06-08T23:05:09.360Z,9.80
2019-06-08T23:07:38.053Z,9.90
2019-06-08T23:10:10.357Z,9.90
2019-06-08T23:12:38.823Z,9.80
2019-06-08T23:15:10.556Z,9.70
2019-06-08T23:17:39.131Z,9.60
2019-06-08T23:20:08.681Z,9.70
2019-06-08T23:22:38.456Z,9.60
2019-06-08T23:25:09.302Z,9.60
2019-06-08T23:27:38.244Z,9.60
2019-06-08T23:30:10.048Z,9.60
2019-06-08T23:32:40.672Z,9.60
2019-06-08T23:35:09.630Z,9.60
2019-06-08T23:37:38.355Z,9.50
2019-06-08T23:40:08.765Z,9.50
2019-06-08T23:42:38.394Z,9.40
2019-06-08T23:45:10.533Z,9.40
2019-06-08T23:47:38.693Z,9.30
2019-06-08T23:50:10.989Z,9.30
2019-06-08T23:52:38.440Z,9.20
2019-06-08T23:55:10.599Z,9.20
2019-06-08T23:57:38.154Z,9.20
